Time;durP1;ratioP1;P1;durP2;ratioP2;P2;SDS_P1;SDS_P2;PMS_P1;PMS_P2;Temp;Humidity;BMP_temperature;BMP_pressure;BME280_temperature;BME280_humidity;BME280_pressure;Samples;Min_cycle;Max_cycle;Signal;HPM_P1;HPM_P2
2023/12/28 00:02:20;;;;;;;3.77;1.60;;;;;;;9.48;100.00;100728.81;5116721;28;20055;-78
2023/12/28 00:04:46;;;;;;;3.97;1.77;;;;;;;9.40;100.00;100755.28;5098424;28;20750;-78
2023/12/28 00:07:12;;;;;;;2.70;1.60;;;;;;;9.39;100.00;100745.47;5116259;28;20035;-78
2023/12/28 00:09:37;;;;;;;2.05;1.48;;;;;;;9.36;100.00;100748.59;5098584;28;20054;-78
2023/12/28 00:12:03;;;;;;;2.27;1.20;;;;;;;9.38;100.00;100747.38;5098063;28;20484;-79
2023/12/28 00:14:28;;;;;;;3.70;1.53;;;;;;;9.38;100.00;100741.94;5081066;28;20035;-78
2023/12/28 00:16:54;;;;;;;2.47;1.42;;;;;;;9.29;100.00;100746.75;5098228;28;20031;-79
2023/12/28 00:19:20;;;;;;;2.63;1.80;;;;;;;9.34;100.00;100750.69;5116474;28;20451;-78
2023/12/28 00:21:46;;;;;;;2.00;1.40;;;;;;;9.30;100.00;100761.97;5080971;28;20413;-78
2023/12/28 00:24:11;;;;;;;1.90;1.40;;;;;;;9.36;100.00;100751.31;5079777;28;20080;-78
2023/12/28 00:26:37;;;;;;;4.20;1.70;;;;;;;9.32;100.00;100764.44;5064478;28;20058;-79
2023/12/28 00:29:02;;;;;;;2.33;1.60;;;;;;;9.29;100.00;100768.41;5081058;28;20031;-78
2023/12/28 00:31:27;;;;;;;4.43;1.80;;;;;;;9.33;100.00;100778.81;5097769;28;20468;-78
2023/12/28 00:33:53;;;;;;;3.05;1.63;;;;;;;9.24;100.00;100784.47;5081153;28;20043;-78
2023/12/28 00:36:18;;;;;;;3.28;1.73;;;;;;;9.23;100.00;100785.50;5116123;28;20447;-79
2023/12/28 00:38:43;;;;;;;3.13;1.90;;;;;;;9.24;100.00;100776.34;5097796;28;20031;-78
2023/12/28 00:41:09;;;;;;;3.40;1.90;;;;;;;9.25;100.00;100775.28;5097448;28;20468;-78
2023/12/28 00:43:34;;;;;;;3.40;1.60;;;;;;;9.36;100.00;100781.09;5080556;28;20067;-78
2023/12/28 00:46:00;;;;;;;6.20;1.70;;;;;;;9.31;100.00;100773.59;5097371;28;20039;-78
2023/12/28 00:48:25;;;;;;;2.67;1.60;;;;;;;9.27;100.00;100792.16;5115326;28;20437;-78
2023/12/28 00:50:50;;;;;;;3.20;1.65;;;;;;;9.30;100.00;100801.72;5115520;28;20043;-78
2023/12/28 00:53:16;;;;;;;3.28;2.00;;;;;;;9.30;100.00;100785.47;5115129;28;20028;-78
2023/12/28 00:55:41;;;;;;;2.80;1.50;;;;;;;9.33;100.00;100795.91;5115825;28;20051;-78
2023/12/28 00:58:07;;;;;;;3.83;1.77;;;;;;;9.33;100.00;100784.22;5115376;28;20034;-78
2023/12/28 01:00:32;;;;;;;3.13;1.77;;;;;;;9.33;100.00;100790.50;5097037;28;20369;-78
2023/12/28 01:02:57;;;;;;;3.00;1.80;;;;;;;9.30;100.00;100802.56;5096764;28;20024;-78
2023/12/28 01:05:25;;;;;;;4.00;1.85;;;;;;;9.24;100.00;100800.69;5097315;28;20032;-78
2023/12/28 01:07:51;;;;;;;5.37;1.70;;;;;;;9.22;100.00;100793.81;5080835;28;20027;-78
2023/12/28 01:10:16;;;;;;;5.68;1.90;;;;;;;9.24;100.00;100799.84;5113816;28;20486;-78
2023/12/28 01:12:42;;;;;;;4.57;2.13;;;;;;;9.29;100.00;100794.66;5115943;28;20181;-78
2023/12/28 01:15:08;;;;;;;4.40;2.10;;;;;;;9.38;100.00;100787.16;5096843;28;20472;-78
2023/12/28 01:17:33;;;;;;;4.28;1.65;;;;;;;9.37;100.00;100796.31;5079931;28;20024;-78
2023/12/28 01:19:59;;;;;;;4.13;1.57;;;;;;;9.34;100.00;100804.84;5115302;28;20031;-78
2023/12/28 01:22:24;;;;;;;2.77;1.60;;;;;;;9.41;100.00;100822.75;5097093;28;20035;-78
2023/12/28 01:24:49;;;;;;;3.93;1.60;;;;;;;9.38;100.00;100820.47;5096747;28;20039;-77
2023/12/28 01:27:15;;;;;;;6.25;1.98;;;;;;;9.36;100.00;100811.75;5114553;28;20261;-78
2023/12/28 01:29:41;;;;;;;4.77;1.70;;;;;;;9.32;100.00;100826.72;5079578;28;20027;-78
2023/12/28 01:32:06;;;;;;;4.30;1.50;;;;;;;9.29;100.00;100817.13;5079658;28;20031;-78
2023/12/28 01:34:31;;;;;;;4.22;1.77;;;;;;;9.28;100.00;100817.34;5097052;28;20764;-78
2023/12/28 01:36:57;;;;;;;10.03;1.97;;;;;;;9.29;100.00;100817.13;5096372;28;20476;-79
2023/12/28 01:39:22;;;;;;;5.10;1.77;;;;;;;9.30;100.00;100823.38;5096703;28;20114;-78
2023/12/28 01:41:48;;;;;;;4.17;2.00;;;;;;;9.27;100.00;100824.66;5096336;28;20036;-78
2023/12/28 01:44:13;;;;;;;8.45;1.58;;;;;;;9.24;100.00;100833.19;5097021;28;20273;-78
2023/12/28 01:46:40;;;;;;;4.07;1.67;;;;;;;9.23;100.00;100834.22;5114483;28;20450;-78
2023/12/28 01:49:05;;;;;;;3.92;1.60;;;;;;;9.18;100.00;100825.03;5079493;28;20065;-78
2023/12/28 01:51:32;;;;;;;4.33;1.40;;;;;;;9.11;100.00;100830.47;5096357;28;20063;-78
2023/12/28 01:54:01;;;;;;;4.10;1.95;;;;;;;9.10;100.00;100824.19;5114074;28;20490;-79
2023/12/28 01:56:27;;;;;;;4.32;1.60;;;;;;;9.10;100.00;100842.31;5114893;28;20028;-78
2023/12/28 01:58:53;;;;;;;4.37;1.70;;;;;;;9.23;100.00;100836.09;5096502;28;20087;-79
2023/12/28 02:01:19;;;;;;;3.70;1.48;;;;;;;9.27;100.00;100835.47;5079370;28;20028;-78
2023/12/28 02:03:45;;;;;;;2.57;1.40;;;;;;;9.17;100.00;100834.19;5114309;28;20383;-78
2023/12/28 02:06:12;;;;;;;4.53;1.75;;;;;;;9.22;100.00;100834.44;5096216;28;20181;-78
2023/12/28 02:08:37;;;;;;;4.55;1.67;;;;;;;9.20;100.00;100833.81;5096823;28;20043;-78
2023/12/28 02:11:03;;;;;;;4.50;1.70;;;;;;;9.15;100.00;100849.81;5096108;28;20074;-78
2023/12/28 02:13:28;;;;;;;3.92;1.65;;;;;;;9.08;100.00;100837.13;5114147;28;20387;-78
2023/12/28 02:16:20;;;;;;;3.33;1.70;;;;;;;9.14;100.00;100846.28;5079096;28;20447;-78
2023/12/28 02:18:51;;;;;;;3.97;1.38;;;;;;;9.10;100.00;100845.84;5114222;28;20040;-78
2023/12/28 02:21:19;;;;;;;3.60;1.40;;;;;;;9.04;100.00;100838.56;5096647;28;20024;-78
2023/12/28 02:23:49;;;;;;;3.67;1.50;;;;;;;9.03;100.00;100826.06;5095828;28;20035;-78
2023/12/28 02:26:18;;;;;;;3.17;1.55;;;;;;;9.00;100.00;100834.59;5095931;28;20118;-79
2023/12/28 02:28:45;;;;;;;5.60;1.83;;;;;;;8.96;100.00;100825.22;5096024;28;20364;-79
2023/12/28 02:31:26;;;;;;;6.32;1.92;;;;;;;9.00;100.00;100837.28;5113860;28;20059;-78
2023/12/28 02:34:00;;;;;;;3.20;1.48;;;;;;;9.04;100.00;100841.28;5114640;28;20111;-79
2023/12/28 02:36:27;;;;;;;3.25;1.50;;;;;;;9.02;100.00;100824.41;5114565;28;20095;-78
2023/12/28 02:38:56;;;;;;;3.85;1.52;;;;;;;9.05;100.00;100826.72;5113944;28;20032;-79
2023/12/28 02:41:22;;;;;;;2.85;1.50;;;;;;;9.16;100.00;100851.50;5114040;28;20028;-78
2023/12/28 02:43:48;;;;;;;3.53;1.48;;;;;;;9.07;100.00;100830.03;5095499;28;20105;-78
2023/12/28 02:46:13;;;;;;;4.45;1.60;;;;;;;9.09;100.00;100824.41;5095954;28;20452;-78
2023/12/28 02:48:39;;;;;;;2.53;1.17;;;;;;;9.08;100.00;100833.56;5116631;28;20032;-78
2023/12/28 02:51:04;;;;;;;3.47;1.60;;;;;;;9.10;100.00;100836.91;5099555;28;20042;-78
2023/12/28 02:53:29;;;;;;;4.77;1.70;;;;;;;9.09;100.00;100833.38;5082395;28;20388;-79
2023/12/28 02:55:55;;;;;;;4.20;1.50;;;;;;;9.10;100.00;100832.31;5117845;28;20476;-79
2023/12/28 02:58:20;;;;;;;3.37;1.33;;;;;;;9.12;100.00;100810.47;5099764;28;20459;-79
2023/12/28 03:00:46;;;;;;;3.88;1.42;;;;;;;9.14;100.00;100797.56;5082197;28;20372;-79
2023/12/28 03:03:11;;;;;;;7.23;1.40;;;;;;;9.19;100.00;100807.78;5117942;28;20427;-79
2023/12/28 03:05:37;;;;;;;7.77;1.67;;;;;;;9.19;100.00;100815.91;5082357;28;20062;-78
2023/12/28 03:08:02;;;;;;;4.90;1.60;;;;;;;9.23;100.00;100807.16;5099688;28;20039;-79
2023/12/28 03:10:28;;;;;;;4.13;1.83;;;;;;;9.21;100.00;100816.50;5082227;28;20035;-79
2023/12/28 03:12:53;;;;;;;2.87;1.40;;;;;;;9.18;100.00;100787.97;5099623;28;20035;-78
2023/12/28 03:15:18;;;;;;;6.00;1.67;;;;;;;9.29;100.00;100817.13;5099725;28;20032;-78
2023/12/28 03:17:44;;;;;;;3.60;1.10;;;;;;;9.25;100.00;100801.53;5117653;28;20036;-78
2023/12/28 03:20:10;;;;;;;4.07;1.80;;;;;;;9.22;100.00;100812.78;5099063;28;20142;-78
2023/12/28 03:22:35;;;;;;;5.05;1.77;;;;;;;9.20;100.00;100828.41;5116947;28;20032;-78
2023/12/28 03:25:01;;;;;;;5.03;1.63;;;;;;;9.20;100.00;100801.31;5099599;28;20027;-79
2023/12/28 03:27:26;;;;;;;2.63;1.30;;;;;;;9.30;100.00;100816.09;5082013;28;20439;-79
2023/12/28 03:29:52;;;;;;;8.05;1.95;;;;;;;9.33;100.00;100841.09;5117153;28;20356;-78
2023/12/28 03:32:17;;;;;;;3.23;1.63;;;;;;;9.41;100.00;100847.13;5099031;28;20536;-78
2023/12/28 03:34:42;;;;;;;8.23;1.40;;;;;;;9.44;100.00;100841.31;5098609;28;20475;-79
2023/12/28 03:37:09;;;;;;;2.17;1.10;;;;;;;9.48;100.00;100841.75;5098843;28;20039;-78
2023/12/28 03:39:35;;;;;;;6.63;1.45;;;;;;;9.45;100.00;100851.09;5099734;28;20031;-78
2023/12/28 03:42:00;;;;;;;5.30;1.20;;;;;;;9.57;100.00;100821.50;5098689;28;20035;-78
2023/12/28 03:44:26;;;;;;;7.25;1.17;;;;;;;9.71;100.00;100826.91;5116597;28;20103;-78
2023/12/28 03:46:51;;;;;;;4.40;1.25;;;;;;;9.87;100.00;100831.91;5082421;28;20455;-78
2023/12/28 03:49:17;;;;;;;6.43;1.37;;;;;;;9.88;100.00;100827.31;5098779;28;20077;-78
2023/12/28 03:51:43;;;;;;;7.50;1.58;;;;;;;9.84;100.00;100810.63;5116622;28;20111;-80
2023/12/28 03:54:08;;;;;;;5.63;1.73;;;;;;;9.81;100.00;100814.59;5081436;28;20028;-78
2023/12/28 03:56:35;;;;;;;4.43;1.30;;;;;;;9.91;100.00;100830.44;5081730;28;20032;-78
2023/12/28 03:59:01;;;;;;;6.22;1.30;;;;;;;9.80;100.00;100822.94;5115273;28;20055;-79
2023/12/28 04:01:26;;;;;;;5.18;1.63;;;;;;;9.82;100.00;100810.03;5098983;28;20122;-78
2023/12/28 04:03:52;;;;;;;8.47;1.43;;;;;;;9.82;100.00;100810.84;5098272;28;20453;-78
2023/12/28 04:06:17;;;;;;;4.67;1.20;;;;;;;9.85;100.00;100820.44;5116175;28;20051;-78
2023/12/28 04:08:43;;;;;;;5.43;1.30;;;;;;;9.81;100.00;100816.50;5097838;28;20050;-79
2023/12/28 04:11:09;;;;;;;5.72;1.15;;;;;;;9.80;100.00;100831.91;5115910;28;20079;-78
2023/12/28 04:13:35;;;;;;;6.45;1.25;;;;;;;9.82;100.00;100837.94;5116359;28;20035;-78
2023/12/28 04:16:01;;;;;;;5.22;1.20;;;;;;;9.84;100.00;100832.31;5116222;28;20059;-78
2023/12/28 04:18:26;;;;;;;7.38;1.45;;;;;;;9.84;100.00;100818.78;5098064;28;20423;-78
2023/12/28 04:20:52;;;;;;;6.60;1.20;;;;;;;9.90;100.00;100827.94;5115786;28;20063;-78
2023/12/28 04:23:17;;;;;;;7.10;1.20;;;;;;;9.95;100.00;100814.56;5114647;28;20054;-79
2023/12/28 04:25:43;;;;;;;7.47;1.27;;;;;;;9.91;100.00;100822.31;5080917;28;20038;-78
2023/12/28 04:28:08;;;;;;;6.47;1.55;;;;;;;9.95;100.00;100838.97;5081652;28;20119;-78
2023/12/28 04:30:34;;;;;;;8.50;1.60;;;;;;;9.97;100.00;100853.16;5115730;28;20031;-78
2023/12/28 04:33:01;;;;;;;7.77;1.40;;;;;;;9.95;100.00;100830.84;5115974;28;20044;-78
2023/12/28 04:35:26;;;;;;;9.57;1.67;;;;;;;10.03;100.00;100829.78;5115905;28;20039;-79
2023/12/28 04:37:51;;;;;;;9.23;1.90;;;;;;;10.06;100.00;100832.91;5097864;28;20038;-78
2023/12/28 04:40:17;;;;;;;10.60;1.57;;;;;;;9.98;100.00;100854.78;5097501;28;20028;-78
2023/12/28 04:42:43;;;;;;;8.33;1.13;;;;;;;9.99;100.00;100826.66;5097630;28;20031;-80
2023/12/28 04:45:09;;;;;;;7.70;1.73;;;;;;;9.98;100.00;100858.38;5097798;28;20081;-78
2023/12/28 04:47:35;;;;;;;5.95;1.23;;;;;;;10.00;100.00;100837.28;5115813;28;20036;-79
2023/12/28 04:50:00;;;;;;;10.77;1.50;;;;;;;10.01;100.00;100828.13;5097429;28;20495;-79
2023/12/28 04:52:26;;;;;;;11.53;2.03;;;;;;;10.04;100.00;100828.72;5097117;28;20023;-78
2023/12/28 04:54:51;;;;;;;7.22;1.33;;;;;;;10.05;100.00;100865.66;5096975;28;20197;-78
2023/12/28 04:57:16;;;;;;;8.73;1.50;;;;;;;10.10;100.00;100836.84;5115392;28;20081;-79
2023/12/28 04:59:42;;;;;;;5.57;1.90;;;;;;;10.08;100.00;100829.97;5096941;28;20114;-79
2023/12/28 05:02:07;;;;;;;7.27;1.90;;;;;;;10.06;100.00;100829.38;5079883;28;20417;-79
2023/12/28 05:04:36;;;;;;;8.43;1.80;;;;;;;10.12;100.00;100823.09;5097228;28;20507;-78
2023/12/28 05:07:02;;;;;;;7.03;1.35;;;;;;;10.10;100.00;100844.16;5097180;28;20379;-78
2023/12/28 05:09:27;;;;;;;11.52;1.40;;;;;;;10.16;100.00;100863.13;5097356;28;20035;-78
2023/12/28 05:11:52;;;;;;;9.50;1.92;;;;;;;10.18;100.00;100839.31;5096176;28;20048;-79
2023/12/28 05:14:18;;;;;;;5.40;1.40;;;;;;;10.17;100.00;100855.81;5115301;28;20036;-79
2023/12/28 05:16:43;;;;;;;6.60;1.30;;;;;;;10.17;100.00;100843.09;5097029;28;20031;-79
2023/12/28 05:19:09;;;;;;;9.40;1.13;;;;;;;10.14;100.00;100843.53;5096885;28;20399;-79
2023/12/28 05:21:34;;;;;;;5.17;1.50;;;;;;;10.03;100.00;100865.84;5079678;28;20088;-79
2023/12/28 05:23:59;;;;;;;9.10;1.63;;;;;;;9.93;100.00;100844.59;5079886;28;20059;-79
2023/12/28 05:26:26;;;;;;;6.83;1.33;;;;;;;9.90;100.00;100822.53;5114927;28;20475;-79
2023/12/28 05:28:51;;;;;;;4.45;2.08;;;;;;;9.87;100.00;100833.78;5115103;28;20031;-79
2023/12/28 05:31:16;;;;;;;6.15;0.98;;;;;;;9.76;100.00;100833.38;5079610;28;20372;-79
2023/12/28 05:33:42;;;;;;;7.70;1.33;;;;;;;9.74;100.00;100838.16;5096245;28;20031;-79
2023/12/28 05:36:07;;;;;;;13.03;2.20;;;;;;;9.65;100.00;100834.84;5096488;28;20035;-79
2023/12/28 05:38:33;;;;;;;10.10;1.63;;;;;;;9.81;100.00;100828.16;5096709;28;20523;-79
2023/12/28 05:40:59;;;;;;;12.52;1.73;;;;;;;9.73;100.00;100850.06;5079499;28;20031;-79
2023/12/28 05:43:24;;;;;;;9.23;1.20;;;;;;;9.81;100.00;100851.72;5079485;28;20031;-78
2023/12/28 05:45:49;;;;;;;7.33;1.03;;;;;;;9.72;100.00;100839.44;5096390;28;20062;-78
2023/12/28 05:48:15;;;;;;;5.60;1.50;;;;;;;9.87;100.00;100831.06;5079725;28;20464;-78
2023/12/28 05:50:40;;;;;;;7.07;1.30;;;;;;;9.91;100.00;100841.28;5096006;28;20479;-79
2023/12/28 05:53:06;;;;;;;11.13;1.67;;;;;;;9.87;100.00;100840.03;5096082;28;20032;-79
2023/12/28 05:55:31;;;;;;;8.33;1.60;;;;;;;9.79;100.00;100861.94;5096843;28;20118;-79
2023/12/28 05:57:57;;;;;;;9.57;1.33;;;;;;;9.74;100.00;100846.28;5095908;28;20035;-79
2023/12/28 06:00:22;;;;;;;10.45;1.90;;;;;;;9.76;100.00;100848.81;5096179;28;20051;-79
2023/12/28 06:02:51;;;;;;;9.53;1.77;;;;;;;9.77;100.00;100861.28;5114580;28;20055;-78
2023/12/28 06:05:17;;;;;;;10.07;1.27;;;;;;;9.80;100.00;100853.59;5114335;28;20032;-78
2023/12/28 06:07:42;;;;;;;8.67;1.57;;;;;;;9.93;100.00;100866.28;5113779;28;20056;-78
2023/12/28 06:10:08;;;;;;;11.98;1.27;;;;;;;9.94;100.00;100857.13;5096071;28;20032;-78
2023/12/28 06:12:34;;;;;;;11.93;2.17;;;;;;;9.94;100.00;100869.84;5114705;28;20048;-79
2023/12/28 06:14:59;;;;;;;6.03;1.37;;;;;;;9.93;100.00;100844.59;5095884;28;20028;-81
2023/12/28 06:17:24;;;;;;;9.50;1.50;;;;;;;9.92;100.00;100872.75;5078987;28;20347;-81
2023/12/28 06:19:50;;;;;;;11.93;1.73;;;;;;;9.95;100.00;100860.66;5095871;28;20123;-79
2023/12/28 06:22:16;;;;;;;7.97;1.50;;;;;;;9.94;100.00;100862.53;5096529;28;20039;-79
2023/12/28 06:24:41;;;;;;;9.17;1.57;;;;;;;9.93;100.00;100879.00;5100224;28;20108;-79
2023/12/28 06:27:06;;;;;;;8.20;1.80;;;;;;;10.00;100.00;100885.25;5100002;28;20058;-79
2023/12/28 06:29:32;;;;;;;10.87;1.93;;;;;;;9.95;100.00;100875.06;5100251;28;20471;-79
2023/12/28 06:31:57;;;;;;;12.47;1.60;;;;;;;9.86;100.00;100886.31;5116814;28;20031;-78
2023/12/28 06:34:23;;;;;;;8.83;1.43;;;;;;;9.84;100.00;100871.09;5099753;28;20114;-79
2023/12/28 06:36:48;;;;;;;7.57;1.70;;;;;;;9.84;100.00;100900.88;5118933;28;20084;-78
2023/12/28 06:39:13;;;;;;;11.07;1.50;;;;;;;9.81;100.00;100900.50;5118529;28;20036;-79
2023/12/28 06:41:39;;;;;;;10.15;1.90;;;;;;;9.91;100.00;100889.25;5100566;28;20289;-79
2023/12/28 06:44:04;;;;;;;8.50;1.53;;;;;;;9.92;100.00;100878.19;5100955;28;20118;-79
2023/12/28 06:46:30;;;;;;;11.73;2.00;;;;;;;9.87;100.00;100872.53;5100556;28;20406;-79
2023/12/28 06:48:55;;;;;;;10.73;1.50;;;;;;;9.78;100.00;100893.59;5100736;28;20046;-79
2023/12/28 06:51:21;;;;;;;9.90;1.40;;;;;;;9.81;100.00;100897.78;5118568;28;20024;-79
2023/12/28 06:53:48;;;;;;;11.27;1.80;;;;;;;9.82;100.00;100905.69;5119093;28;20439;-79
2023/12/28 06:56:14;;;;;;;19.85;1.92;;;;;;;9.80;100.00;100896.97;5117775;28;20031;-79
2023/12/28 06:58:40;;;;;;;12.43;1.77;;;;;;;9.80;100.00;100880.69;5116512;28;20043;-79
2023/12/28 07:01:05;;;;;;;11.00;1.50;;;;;;;9.74;100.00;100883.41;5116106;28;20035;-79
2023/12/28 07:03:32;;;;;;;9.32;1.42;;;;;;;9.69;100.00;100881.31;5099421;28;20085;-79
2023/12/28 07:06:02;;;;;;;16.33;1.83;;;;;;;9.68;100.00;100924.88;5099592;28;20467;-79
2023/12/28 07:08:28;;;;;;;13.75;1.67;;;;;;;9.64;100.00;100903.63;5118029;28;20052;-79
2023/12/28 07:10:54;;;;;;;12.63;2.27;;;;;;;9.56;100.00;100892.16;5098956;28;20031;-79
2023/12/28 07:13:19;;;;;;;12.17;1.80;;;;;;;9.55;100.00;100899.47;5098536;28;20463;-79
2023/12/28 07:15:44;;;;;;;14.00;1.83;;;;;;;9.59;100.00;100880.91;5099344;28;20043;-78
2023/12/28 07:18:10;;;;;;;10.50;1.60;;;;;;;9.56;100.00;100894.84;5099217;28;20506;-79
2023/12/28 07:20:35;;;;;;;12.03;1.53;;;;;;;9.50;100.00;100917.38;5099345;28;20098;-79
2023/12/28 07:23:00;;;;;;;11.03;1.43;;;;;;;9.44;100.00;100909.00;5082329;28;20036;-79
2023/12/28 07:25:26;;;;;;;13.67;1.70;;;;;;;9.44;100.00;100910.91;5117164;28;20036;-79
2023/12/28 07:27:51;;;;;;;20.10;1.83;;;;;;;9.55;100.00;100955.47;5117689;28;20087;-79
2023/12/28 07:30:17;;;;;;;13.73;2.07;;;;;;;9.66;100.00;100922.38;5098679;28;20024;-79
2023/12/28 07:32:44;;;;;;;12.95;1.75;;;;;;;9.66;100.00;100946.75;5116987;28;20028;-79
2023/12/28 07:35:10;;;;;;;13.98;1.77;;;;;;;9.70;100.00;100937.19;5117064;28;20376;-79
2023/12/28 07:37:35;;;;;;;15.80;1.73;;;;;;;9.76;100.00;100936.34;5116911;28;20035;-78
2023/12/28 07:40:03;;;;;;;14.27;1.60;;;;;;;9.71;100.00;100930.69;5082328;28;20031;-78
2023/12/28 07:42:28;;;;;;;9.57;1.50;;;;;;;9.70;100.00;100936.31;5116715;28;20119;-78
2023/12/28 07:44:54;;;;;;;11.27;1.80;;;;;;;9.67;100.00;100953.84;5116802;28;20112;-78
2023/12/28 07:47:19;;;;;;;8.67;1.70;;;;;;;9.64;100.00;100946.97;5099219;28;20432;-78
2023/12/28 07:49:44;;;;;;;15.93;1.90;;;;;;;9.59;100.00;100943.19;5098543;28;20032;-78
2023/12/28 07:52:10;;;;;;;13.80;1.90;;;;;;;9.58;100.00;100958.63;5082064;28;20376;-79
2023/12/28 07:54:35;;;;;;;10.10;1.73;;;;;;;9.63;100.00;100945.28;5098407;28;20070;-78
2023/12/28 07:57:01;;;;;;;14.13;1.40;;;;;;;9.63;100.00;100950.69;5098424;28;20354;-78
2023/12/28 07:59:26;;;;;;;11.63;1.97;;;;;;;9.71;100.00;100960.50;5098222;28;20036;-77
2023/12/28 08:01:51;;;;;;;11.23;1.90;;;;;;;9.70;100.00;100958.00;5116243;28;20397;-78
2023/12/28 08:04:17;;;;;;;12.53;1.93;;;;;;;9.69;100.00;100950.94;5116040;28;20032;-78
2023/12/28 08:06:42;;;;;;;11.35;1.50;;;;;;;9.70;100.00;100955.28;5098174;28;20039;-78
2023/12/28 08:09:08;;;;;;;13.18;2.00;;;;;;;9.73;100.00;100974.69;5116849;28;20038;-79
2023/12/28 08:11:34;;;;;;;11.20;1.73;;;;;;;9.75;100.00;100969.06;5116248;28;20474;-79
2023/12/28 08:13:59;;;;;;;13.82;1.92;;;;;;;9.72;100.00;100969.47;5097904;28;20055;-79
2023/12/28 08:16:26;;;;;;;11.90;1.63;;;;;;;9.71;100.00;100974.06;5116158;28;20024;-79
2023/12/28 08:18:51;;;;;;;14.30;2.03;;;;;;;9.75;100.00;100959.06;5116295;28;20027;-79
2023/12/28 08:21:17;;;;;;;14.60;2.00;;;;;;;9.76;100.00;100965.31;5097777;28;20034;-78
2023/12/28 08:23:42;;;;;;;12.82;1.63;;;;;;;9.73;100.00;100960.28;5117537;28;20120;-79
2023/12/28 08:26:08;;;;;;;13.33;1.90;;;;;;;9.76;100.00;100960.72;5098030;28;20467;-79
2023/12/28 08:28:33;;;;;;;11.03;1.87;;;;;;;9.73;100.00;100952.16;5097856;28;20038;-78
2023/12/28 08:30:58;;;;;;;11.23;1.43;;;;;;;9.74;100.00;100965.50;5115868;28;20031;-79
2023/12/28 08:33:24;;;;;;;12.00;1.83;;;;;;;9.77;100.00;100975.09;5080917;28;20371;-79
2023/12/28 08:35:49;;;;;;;13.47;1.87;;;;;;;9.82;100.00;100959.91;5114636;28;20127;-79
2023/12/28 08:38:15;;;;;;;9.05;1.27;;;;;;;9.89;100.00;100975.31;5081347;28;20289;-78
2023/12/28 08:40:41;;;;;;;14.73;2.27;;;;;;;9.88;100.00;100962.84;5097059;28;20039;-79
2023/12/28 08:43:06;;;;;;;11.38;1.63;;;;;;;9.89;100.00;100956.34;5097513;28;20089;-79
2023/12/28 08:45:34;;;;;;;10.83;1.90;;;;;;;9.82;100.00;100968.03;5079863;28;20471;-78
2023/12/28 08:47:59;;;;;;;17.27;2.20;;;;;;;9.90;100.00;100985.13;5097709;28;20122;-78
2023/12/28 08:50:25;;;;;;;14.10;1.90;;;;;;;9.89;100.00;100976.19;5116135;28;20063;-79
2023/12/28 08:52:50;;;;;;;13.57;1.83;;;;;;;9.93;100.00;100982.00;5116056;28;20078;-78
2023/12/28 08:55:16;;;;;;;13.30;1.93;;;;;;;9.92;100.00;100966.78;5097592;28;20047;-79
2023/12/28 08:57:41;;;;;;;12.88;2.33;;;;;;;10.00;100.00;100970.09;5080046;28;20035;-79
2023/12/28 09:00:07;;;;;;;17.70;2.27;;;;;;;10.10;100.00;100977.84;5096814;28;20161;-78
2023/12/28 09:02:33;;;;;;;10.13;1.83;;;;;;;10.13;100.00;101001.81;5064042;28;20072;-79
2023/12/28 09:04:58;;;;;;;10.27;1.60;;;;;;;10.17;100.00;100991.38;5115007;28;20114;-79
2023/12/28 09:07:24;;;;;;;11.87;1.87;;;;;;;10.14;100.00;101013.47;5115171;28;20035;-79
2023/12/28 09:09:50;;;;;;;16.65;2.10;;;;;;;10.11;100.00;101016.63;5115081;28;20026;-79
2023/12/28 09:12:15;;;;;;;14.30;1.53;;;;;;;10.05;100.00;101007.44;5096639;28;20051;-79
2023/12/28 09:14:41;;;;;;;12.40;2.20;;;;;;;10.12;100.00;101005.56;5115083;28;20028;-79
2023/12/28 09:17:06;;;;;;;14.85;1.73;;;;;;;10.08;100.00;101009.72;5113719;28;20031;-78
2023/12/28 09:19:32;;;;;;;18.47;3.17;;;;;;;10.09;100.00;101013.28;5096822;28;20066;-78
2023/12/28 09:21:57;;;;;;;11.47;1.47;;;;;;;10.09;100.00;101013.28;5114716;28;20445;-78
2023/12/28 09:24:22;;;;;;;14.67;2.20;;;;;;;10.13;100.00;101025.41;5097237;28;20036;-78
2023/12/28 09:26:48;;;;;;;13.43;1.77;;;;;;;10.14;100.00;101017.06;5096371;28;20028;-78
2023/12/28 09:29:13;;;;;;;11.95;2.08;;;;;;;10.20;100.00;101015.34;5114807;28;20463;-79
2023/12/28 09:31:39;;;;;;;11.37;1.67;;;;;;;10.18;100.00;101017.44;5115166;28;20460;-79
2023/12/28 09:34:05;;;;;;;13.55;2.00;;;;;;;10.17;100.00;101024.75;5114682;28;20472;-79
2023/12/28 09:36:31;;;;;;;13.73;2.30;;;;;;;10.16;100.00;101024.97;5096519;28;20032;-79
2023/12/28 09:38:56;;;;;;;14.45;2.25;;;;;;;10.15;100.00;101024.13;5096704;28;20028;-79
2023/12/28 09:41:26;;;;;;;18.60;2.20;;;;;;;10.14;100.00;101021.63;5114371;28;20383;-79
2023/12/28 09:44:19;;;;;;;14.93;2.50;;;;;;;10.15;100.00;101029.53;5096240;28;20028;-79
2023/12/28 09:46:46;;;;;;;16.23;2.30;;;;;;;10.13;100.00;101055.22;5094601;28;20476;-79
2023/12/28 09:49:11;;;;;;;13.02;1.77;;;;;;;10.18;100.00;101041.84;5096257;28;20072;-79
2023/12/28 09:51:37;;;;;;;15.00;2.23;;;;;;;10.12;100.00;101024.53;5096625;28;20023;-79
2023/12/28 09:54:05;;;;;;;12.67;1.50;;;;;;;10.17;100.00;101072.72;5096222;28;20410;-78
2023/12/28 09:56:32;;;;;;;14.65;2.13;;;;;;;10.20;100.00;101045.19;5114548;28;20076;-79
2023/12/28 09:58:59;;;;;;;16.05;2.10;;;;;;;10.21;100.00;101057.72;5096013;28;20031;-79
2023/12/28 10:01:24;;;;;;;15.98;2.22;;;;;;;10.15;100.00;101056.66;5113162;28;20031;-78
2023/12/28 10:03:50;;;;;;;19.85;2.75;;;;;;;10.22;100.00;101072.13;5114062;28;20487;-79
2023/12/28 10:06:16;;;;;;;13.18;2.42;;;;;;;10.23;100.00;101052.06;5096103;28;20031;-79
2023/12/28 10:08:48;;;;;;;10.77;1.70;;;;;;;10.24;100.00;101073.56;5114476;28;20033;-79
2023/12/28 10:11:16;;;;;;;11.48;1.60;;;;;;;10.23;100.00;101052.06;5113844;28;20063;-78
2023/12/28 10:13:42;;;;;;;15.27;1.77;;;;;;;10.24;100.00;101051.03;5076750;28;20131;-79
2023/12/28 10:16:09;;;;;;;16.08;1.90;;;;;;;10.32;100.00;101054.38;5079041;28;20050;-79
2023/12/28 10:18:35;;;;;;;16.40;2.03;;;;;;;10.34;100.00;101041.47;5114048;28;20028;-79
2023/12/28 10:21:00;;;;;;;13.52;1.95;;;;;;;10.43;100.00;101071.09;5095875;28;20054;-79
2023/12/28 10:23:26;;;;;;;19.77;2.20;;;;;;;10.41;100.00;101051.47;5095563;28;20391;-78
2023/12/28 10:25:53;;;;;;;15.37;1.87;;;;;;;10.43;100.00;101063.78;5096157;28;20115;-79
2023/12/28 10:28:19;;;;;;;11.60;1.88;;;;;;;10.43;100.00;101054.84;5096160;28;20028;-78
2023/12/28 10:30:45;;;;;;;24.73;2.70;;;;;;;10.49;100.00;101054.00;5114358;28;20047;-79
2023/12/28 10:33:11;;;;;;;9.93;1.87;;;;;;;10.47;100.00;101058.81;5096146;28;20036;-79
2023/12/28 10:35:36;;;;;;;18.20;2.00;;;;;;;10.46;100.00;101059.84;5114117;28;20036;-79
2023/12/28 10:38:04;;;;;;;10.90;2.00;;;;;;;10.46;100.00;101024.56;5078834;28;20031;-79
2023/12/28 10:40:32;;;;;;;12.38;1.92;;;;;;;10.55;100.00;101060.47;5114101;28;20031;-79
2023/12/28 10:43:01;;;;;;;12.23;2.00;;;;;;;10.69;100.00;101043.94;5095799;28;20043;-78
2023/12/28 10:45:31;;;;;;;13.23;2.10;;;;;;;10.86;100.00;101035.34;5095534;28;20024;-79
2023/12/28 10:48:09;;;;;;;13.90;1.95;;;;;;;11.00;100.00;101028.84;5113884;28;20479;-79
2023/12/28 10:50:39;;;;;;;17.15;1.83;;;;;;;11.02;100.00;101051.16;5095025;28;20024;-79
2023/12/28 10:53:28;;;;;;;11.68;1.60;;;;;;;11.03;100.00;101028.41;5095684;28;20028;-79
2023/12/28 10:56:08;;;;;;;12.48;2.22;;;;;;;11.03;100.00;101027.59;5113939;28;20471;-79
2023/12/28 10:58:42;;;;;;;16.63;2.10;;;;;;;11.16;100.00;101051.13;5113435;28;20031;-79
2023/12/28 11:01:11;;;;;;;13.65;1.65;;;;;;;11.27;100.00;101033.34;5113494;28;20028;-79
2023/12/28 11:03:40;;;;;;;14.75;2.50;;;;;;;11.28;100.00;101052.13;5113670;28;20077;-79
2023/12/28 11:06:08;;;;;;;12.73;1.77;;;;;;;11.26;100.00;101039.81;5114150;28;20094;-79
2023/12/28 11:08:35;;;;;;;18.27;1.95;;;;;;;11.26;100.00;101050.69;5096414;28;20032;-79
2023/12/28 11:11:01;;;;;;;12.55;2.00;;;;;;;11.24;100.00;101040.84;5099043;28;20035;-79
2023/12/28 11:13:30;;;;;;;21.20;2.65;;;;;;;11.22;100.00;101034.00;5082521;28;20052;-79
2023/12/28 11:15:56;;;;;;;14.93;2.10;;;;;;;11.29;100.00;101029.34;5098869;28;20024;-79